Terminal Aerodrome Forecast
Issued by NWS Duluth, MN

Home | Current Version | Previous Version | Text Only | Print | Product List | Glossary On
Versions: 1 2 3 4 5 6 7 8 9 10 11 12 13 14 15 16 17 18 19 20 21 22 23 24 25
000
FTUS43 KDLH 221346 AAB
TAFDLH
TAF AMD
KDLH 221346Z 2214/2312 20005KT P6SM VCSH BKN011
      TEMPO 2214/2215 SCT011
     FM221600 10007KT P6SM SCT035 BKN070
     FM222100 12007KT P6SM VCSH BKN060
      TEMPO 2223/2301 5SM -TSRA SCT020 BKN035CB
     FM230500 25004KT 6SM BR SCT015 BKN050=

USA.gov is the U.S. government's official web portal to all federal, state and local government web resources and services.